Flood From: 22-02-2018 16:00 Until: 23-02-2018 16:00 warning for: Flood Level: Yellow info button

Although rather usual in this region, locally or potentially dangerous phenomena are expected. (such as local winds, summer thunderstorms, rising streams or high waves) Be aware and pay attention to the latest weather updates, especially if you carry out activities exposed to weather or close to a stream or shoreline. 


Meteo18 Weather Cam more information Meteo18 Weather Cam


Thunder radar more information blitzortung!


Rain radar more information rain snow radar


Visit our other weather sites:

Template documentation
and downloads

And another site



Weather Underground History page Text

Daily Summary for September 28, 2016 Units:  Metric    English   Both
« Previous Day
Next Day »
Daily Weekly Monthly Yearly Custom
  High: Low: Average:
Temperature: -17.8 °C -13.2 °C -8.7 °C
Dew Point: -17.8 °C -14.3 °C -12.7 °C
Humidity: Humidity % 39 % 65 %
Wind Speed: 0 km/h 0 km/h 3.4 km/h
Wind Gust: 0 km/h - -
Wind:- - SW
Pressure: 0 hPa 34760.7 hPa -
Precipitation: 0 mm    
Historical Graphs
 
 
Tabular Data for September 28, 2016
Time Temperature Dew Point Pressure Wind Wind Speed Wind Gust Humidity Rainfall Rate (Hourly)
-17.8 °C -17.8 °C 0 hPa Calm     Humidity % 0 mm
00:02 -10.8 °C -13.6 °C 34808.1 hPa Calm   2.6 km/h 72 % 0 mm
00:12 -10.7 °C -13.6 °C 34808.1 hPa NNW 2.6 km/h 5.1 km/h 70 % 0 mm
00:17 -10.6 °C -13.7 °C 34808.1 hPa NNW 2.6 km/h 5.1 km/h 69 % 0 mm
00:22 -10.6 °C -13.6 °C 34808.1 hPa North 2.6 km/h 5.1 km/h 70 % 0 mm
00:27 -10.7 °C -13.7 °C 34808.1 hPa Calm   5.1 km/h 70 % 0 mm
00:32 -10.8 °C -13.7 °C 34808.1 hPa Calm   5.1 km/h 71 % 0 mm
00:37 -10.9 °C -13.6 °C 34808.1 hPa Calm   5.1 km/h 72 % 0 mm
00:42 -10.9 °C -13.7 °C 34808.1 hPa Calm   2.6 km/h 72 % 0 mm
00:47 -10.9 °C -13.6 °C 34808.1 hPa North 2.6 km/h 2.6 km/h 72 % 0 mm
00:52 -10.8 °C -13.6 °C 34808.1 hPa Calm   2.6 km/h 72 % 0 mm
00:57 -10.8 °C -13.5 °C 34808.1 hPa Calm   2.6 km/h 72 % 0 mm
01:02 -10.7 °C -13.4 °C 34808.1 hPa Calm   2.6 km/h 72 % 0 mm
01:12 -10.9 °C -13.7 °C 34808.1 hPa Calm     72 % 0 mm
01:17 -11.1 °C -13.7 °C 34808.1 hPa Calm     73 % 0 mm
01:22 -11.1 °C -13.6 °C 34808.1 hPa Calm     74 % 0 mm
01:27 -11.1 °C -13.6 °C 34808.1 hPa Calm   2.6 km/h 74 % 0 mm
01:32 -11.2 °C -13.7 °C 34808.1 hPa Calm   2.6 km/h 74 % 0 mm
01:37 -11.2 °C -13.6 °C 34808.1 hPa Calm     75 % 0 mm
01:42 -11.2 °C -13.6 °C 34808.1 hPa Calm     75 % 0 mm
01:47 -11.3 °C -13.7 °C 34808.1 hPa WNW 2.6 km/h 2.6 km/h 75 % 0 mm
01:52 -11.3 °C -13.7 °C 34808.1 hPa WNW 2.6 km/h 2.6 km/h 75 % 0 mm
01:57 -11.4 °C -13.8 °C 34808.1 hPa Calm   2.6 km/h 75 % 0 mm
02:12 -11.3 °C -13.7 °C 34818.2 hPa Calm   2.6 km/h 75 % 0 mm
02:22 -11.4 °C -13.6 °C 34818.2 hPa Calm     77 % 0 mm
02:27 -11.5 °C -13.7 °C 34818.2 hPa Calm     77 % 0 mm
02:37 -11.6 °C -13.8 °C 34818.2 hPa Calm     76 % 0 mm
02:42 -11.6 °C -13.7 °C 34818.2 hPa Calm     77 % 0 mm
02:47 -11.6 °C -13.6 °C 34818.2 hPa Calm     78 % 0 mm
02:52 -11.6 °C -13.7 °C 34818.2 hPa Calm     78 % 0 mm
02:57 -11.6 °C -13.7 °C 34818.2 hPa Calm     78 % 0 mm
03:02 -11.6 °C -13.7 °C 34818.2 hPa Calm     78 % 0 mm
03:07 -11.7 °C -13.7 °C 34818.2 hPa Calm     78 % 0 mm
03:12 -11.6 °C -13.7 °C 34808.1 hPa Calm     78 % 0 mm
03:17 -11.7 °C -13.8 °C 34808.1 hPa Calm     78 % 0 mm
03:32 -11.7 °C -13.7 °C 34808.1 hPa Calm   2.6 km/h 79 % 0 mm
03:37 -11.7 °C -13.7 °C 34808.1 hPa Calm   2.6 km/h 79 % 0 mm
03:42 -11.8 °C -13.7 °C 34808.1 hPa Calm   2.6 km/h 79 % 0 mm
03:52 -11.7 °C -13.6 °C 34808.1 hPa Calm     79 % 0 mm
03:57 -11.6 °C -13.7 °C 34808.1 hPa Calm   2.6 km/h 78 % 0 mm
04:02 -11.6 °C -13.7 °C 34818.2 hPa Calm   2.6 km/h 78 % 0 mm
04:12 -11.6 °C -13.8 °C 34818.2 hPa Calm   2.6 km/h 77 % 0 mm
04:17 -11.7 °C -13.9 °C 34818.2 hPa Calm   2.6 km/h 77 % 0 mm
04:22 -11.8 °C -13.8 °C 34818.2 hPa Calm   2.6 km/h 79 % 0 mm
04:27 -11.9 °C -13.8 °C 34818.2 hPa Calm   2.6 km/h 79 % 0 mm
04:32 -12 °C -13.9 °C 34808.1 hPa Calm   2.6 km/h 79 % 0 mm
04:37 -12 °C -13.8 °C 34818.2 hPa Calm     80 % 0 mm
04:42 -12.1 °C -13.9 °C 34818.2 hPa Calm     80 % 0 mm
04:47 -12.1 °C -13.9 °C 34818.2 hPa Calm     80 % 0 mm
04:52 -12.1 °C -13.8 °C 34808.1 hPa Calm     81 % 0 mm
05:02 -12.1 °C -13.8 °C 34818.2 hPa Calm     81 % 0 mm
05:12 -12.3 °C -14 °C 34808.1 hPa Calm     81 % 0 mm
05:17 -12.4 °C -14.1 °C 34808.1 hPa Calm     81 % 0 mm
05:22 -12.5 °C -14.1 °C 34808.1 hPa Calm     82 % 0 mm
05:32 -12.5 °C -14 °C 34818.2 hPa Calm     83 % 0 mm
05:37 -12.6 °C -14.1 °C 34818.2 hPa Calm     83 % 0 mm
05:42 -12.5 °C -13.9 °C 34818.2 hPa Calm     84 % 0 mm
05:52 -12.3 °C -13.9 °C 34831.8 hPa Calm     82 % 0 mm
05:57 -12.3 °C -13.9 °C 34818.2 hPa Calm     82 % 0 mm
06:02 -12.4 °C -14 °C 34818.2 hPa Calm     82 % 0 mm
06:07 -12.4 °C -13.9 °C 34818.2 hPa Calm     83 % 0 mm
06:12 -12.4 °C -13.9 °C 34818.2 hPa Calm     83 % 0 mm
06:17 -12.5 °C -13.9 °C 34818.2 hPa Calm     84 % 0 mm
06:22 -12.6 °C -14 °C 34831.8 hPa Calm     84 % 0 mm
06:27 -12.6 °C -14.1 °C 34831.8 hPa Calm     84 % 0 mm
06:32 -12.6 °C -13.9 °C 34831.8 hPa Calm     85 % 0 mm
06:42 -12.6 °C -13.9 °C 34831.8 hPa Calm     85 % 0 mm
06:52 -12.6 °C -14.1 °C 34841.9 hPa Calm     83 % 0 mm
07:02 -12.7 °C -14.1 °C 34831.8 hPa Calm     85 % 0 mm
07:07 -12.7 °C -14.1 °C 34831.8 hPa Calm   2.6 km/h 85 % 0 mm
07:12 -12.8 °C -14.1 °C 34831.8 hPa Calm   2.6 km/h 86 % 0 mm
07:17 -12.8 °C -14.1 °C 34831.8 hPa Calm   2.6 km/h 86 % 0 mm
07:22 -12.9 °C -14.2 °C 34841.9 hPa Calm   2.6 km/h 86 % 0 mm
07:32 -13.1 °C -14.2 °C 34831.8 hPa Calm     87 % 0 mm
07:37 -13.2 °C -14.3 °C 34831.8 hPa Calm     87 % 0 mm
07:42 -13.2 °C -14.2 °C 34841.9 hPa Calm     88 % 0 mm
07:52 -13.2 °C -14.1 °C 34841.9 hPa Calm     89 % 0 mm
07:57 -13.1 °C -13.9 °C 34841.9 hPa Calm     90 % 0 mm
08:02 -13 °C -13.9 °C 34841.9 hPa Calm     89 % 0 mm
08:22 -12.8 °C -13.8 °C 34841.9 hPa Calm     89 % 0 mm
08:32 -12.6 °C -13.7 °C 34841.9 hPa Calm     88 % 0 mm
08:37 -12.5 °C -13.4 °C 34841.9 hPa Calm     89 % 0 mm
08:42 -12.1 °C -13.1 °C 34841.9 hPa Calm     89 % 0 mm
08:52 -11.8 °C -13.4 °C 34841.9 hPa Calm     83 % 0 mm
09:02 -11.7 °C -13.4 °C 34841.9 hPa Calm     82 % 0 mm
09:07 -11.6 °C -13.2 °C 34852.1 hPa Calm     82 % 0 mm
09:12 -11.3 °C -13.3 °C 34852.1 hPa SSW 5.1 km/h 5.1 km/h 79 % 0 mm
09:17 -11.3 °C -13.3 °C 34852.1 hPa SSW 7.7 km/h 7.7 km/h 79 % 0 mm
09:22 -11.3 °C -13.2 °C 34852.1 hPa SW 5.1 km/h 10.3 km/h 79 % 0 mm
09:27 -11.1 °C -13.1 °C 34852.1 hPa SW 2.6 km/h 10.3 km/h 78 % 0 mm
09:32 -10.9 °C -13 °C 34852.1 hPa SSW 5.1 km/h 10.3 km/h 78 % 0 mm
09:37 -10.8 °C -13 °C 34852.1 hPa Calm   10.3 km/h 77 % 0 mm
09:42 -10.7 °C -13 °C 34865.6 hPa SSW 2.6 km/h 10.3 km/h 76 % 0 mm
09:52 -10.4 °C -12.9 °C 34852.1 hPa South 5.1 km/h 10.3 km/h 74 % 0 mm
09:57 -10.3 °C -12.9 °C 34865.6 hPa Calm   10.3 km/h 73 % 0 mm
10:02 -10.1 °C -12.9 °C 34865.6 hPa SSW 10.3 km/h 10.3 km/h 72 % 0 mm
10:17 -9.7 °C -12.7 °C 34865.6 hPa SW 2.6 km/h 10.3 km/h 70 % 0 mm
10:22 -9.5 °C -12.6 °C 34865.6 hPa SSE 5.1 km/h 7.7 km/h 69 % 0 mm
10:32 -9.1 °C -12.4 °C 34875.8 hPa South 2.6 km/h 7.7 km/h 67 % 0 mm
10:42 -8.9 °C -12.6 °C 34875.8 hPa SW 5.1 km/h 10.3 km/h 65 % 0 mm
10:52 -8.6 °C -12.5 °C 34875.8 hPa SSW 7.7 km/h 10.3 km/h 63 % 0 mm
10:57 -8.4 °C -12.4 °C 34875.8 hPa SW 5.1 km/h 10.3 km/h 62 % 0 mm
11:12 -7.9 °C -12.3 °C 34875.8 hPa SW 12.9 km/h 12.9 km/h 60 % 0 mm
11:17 -7.8 °C -12.5 °C 34875.8 hPa South 10.3 km/h 12.9 km/h 58 % 0 mm
11:22 -7.7 °C -12.3 °C 34875.8 hPa Calm   15.6 km/h 58 % 0 mm
11:32 -7.3 °C -12.3 °C 34875.8 hPa South 2.6 km/h 15.6 km/h 56 % 0 mm
11:37 -7.2 °C -12.3 °C 34875.8 hPa WSW 5.1 km/h 15.6 km/h 55 % 0 mm
11:42 -7.2 °C -12.3 °C 34875.8 hPa South 12.9 km/h 20.8 km/h 55 % 0 mm
11:47 -6.9 °C -12.3 °C 34865.6 hPa ESE 5.1 km/h 20.8 km/h 54 % 0 mm
11:52 -6.8 °C -12.4 °C 34865.6 hPa SW 5.1 km/h 20.8 km/h 52 % 0 mm
12:02 -6.4 °C -12.3 °C 34865.6 hPa SSW 5.1 km/h 15.6 km/h 51 % 0 mm
12:12 -6.2 °C -12.4 °C 34852.1 hPa SSE 2.6 km/h 15.6 km/h 49 % 0 mm
12:17 -6.1 °C -12.4 °C 34852.1 hPa SSW 2.6 km/h 15.6 km/h 48 % 0 mm
12:22 -6.1 °C -12.4 °C 34852.1 hPa SSW 7.7 km/h 18.2 km/h 48 % 0 mm
12:32 -5.9 °C -12.5 °C 34852.1 hPa SSW 15.6 km/h 18.2 km/h 47 % 0 mm
12:42 -5.7 °C -12.7 °C 34852.1 hPa SSE 12.9 km/h 23.3 km/h 45 % 0 mm
12:52 -5.7 °C -12.6 °C 34852.1 hPa SW 12.9 km/h 23.3 km/h 45 % 0 mm
12:57 -5.4 °C -12.5 °C 34852.1 hPa ESE 7.7 km/h 20.8 km/h 44 % 0 mm
13:02 -5.3 °C -12.8 °C 34852.1 hPa WSW 15.6 km/h 20.8 km/h 42 % 0 mm
13:12 -5.5 °C -12.8 °C 34852.1 hPa WSW 10.3 km/h 25.9 km/h 43 % 0 mm
13:17 -5.4 °C -12.9 °C 34841.9 hPa SSW 20.8 km/h 25.9 km/h 42 % 0 mm
13:22 -5.3 °C -12.8 °C 34841.9 hPa WSW 10.3 km/h 25.9 km/h 42 % 0 mm
13:32 -5.2 °C -12.7 °C 34841.9 hPa WSW 2.6 km/h 25.9 km/h 42 % 0 mm
13:37 -5.1 °C -12.8 °C 34841.9 hPa WSW 18.2 km/h 23.3 km/h 41 % 0 mm
13:42 -5.1 °C -12.8 °C 34841.9 hPa SW 5.1 km/h 23.3 km/h 41 % 0 mm
13:47 -5.1 °C -12.8 °C 34841.9 hPa WSW 18.2 km/h 23.3 km/h 41 % 0 mm
13:52 -5.2 °C -12.7 °C 34841.9 hPa SSW 12.9 km/h 25.9 km/h 42 % 0 mm
14:02 -4.9 °C -12.9 °C 34831.8 hPa SSW 15.6 km/h 25.9 km/h 40 % 0 mm
14:12 -4.8 °C -12.8 °C 34831.8 hPa SW 10.3 km/h 28.5 km/h 40 % 0 mm
14:17 -4.9 °C -12.8 °C 34831.8 hPa SSW 15.6 km/h 28.5 km/h 40 % 0 mm
14:22 -4.8 °C -12.6 °C 34818.2 hPa WSW 7.7 km/h 23.3 km/h 41 % 0 mm
14:32 -4.6 °C -12.8 °C 34818.2 hPa South 18.2 km/h 23.3 km/h 39 % 0 mm
14:37 -4.8 °C -12.9 °C 34818.2 hPa West 7.7 km/h 33.6 km/h 39 % 0 mm
14:42 -4.7 °C -12.9 °C 34818.2 hPa SW 5.1 km/h 33.6 km/h 39 % 0 mm
14:47 -4.7 °C -12.7 °C 34818.2 hPa WSW 7.7 km/h 33.6 km/h 40 % 0 mm
14:52 -4.5 °C -12.5 °C 34818.2 hPa SSW 10.3 km/h 33.6 km/h 40 % 0 mm
15:12 -4.4 °C -12.4 °C 34808.1 hPa WSW 15.6 km/h 20.8 km/h 40 % 0 mm
15:17 -4.3 °C -12.3 °C 34808.1 hPa WSW 10.3 km/h 25.9 km/h 40 % 0 mm
15:22 -4.4 °C -12.4 °C 34808.1 hPa SW 10.3 km/h 25.9 km/h 40 % 0 mm
15:27 -4.3 °C -12.4 °C 34808.1 hPa West 12.9 km/h 28.5 km/h 40 % 0 mm
15:32 -4.5 °C -12.5 °C 34797.9 hPa West 12.9 km/h 28.5 km/h 40 % 0 mm
15:37 -4.6 °C -12.3 °C 34797.9 hPa SW 10.3 km/h 20.8 km/h 41 % 0 mm
15:42 -4.4 °C -12.4 °C 34797.9 hPa WNW 18.2 km/h 20.8 km/h 40 % 0 mm
15:47 -4.5 °C -12.5 °C 34797.9 hPa West 10.3 km/h 23.3 km/h 40 % 0 mm
15:52 -4.4 °C -12.4 °C 34797.9 hPa West 7.7 km/h 23.3 km/h 40 % 0 mm
15:57 -4.4 °C -12.4 °C 34797.9 hPa West 10.3 km/h 23.3 km/h 40 % 0 mm
16:02 -4.4 °C -12.4 °C 34797.9 hPa SW 7.7 km/h 23.3 km/h 40 % 0 mm
16:12 -4.2 °C -12.5 °C 34797.9 hPa WSW 25.9 km/h 25.9 km/h 39 % 0 mm
16:22 -4.3 °C -12.6 °C 34797.9 hPa SW 10.3 km/h 28.5 km/h 39 % 0 mm
16:32 -4.2 °C -12.5 °C 34784.4 hPa WNW 7.7 km/h 28.5 km/h 39 % 0 mm
16:42 -4.1 °C -12.4 °C 34797.9 hPa WSW 12.9 km/h 18.2 km/h 39 % 0 mm
16:52 -4.1 °C -12.4 °C 34784.4 hPa SSW 12.9 km/h 20.8 km/h 39 % 0 mm
16:57 -4.1 °C -12.4 °C 34784.4 hPa West 12.9 km/h 28.5 km/h 39 % 0 mm
17:07 -4.1 °C -12.1 °C 34784.4 hPa WSW 2.6 km/h 28.5 km/h 40 % 0 mm
17:12 -3.9 °C -12.2 °C 34784.4 hPa SSW 7.7 km/h 28.5 km/h 39 % 0 mm
17:17 -3.8 °C -11.9 °C 34784.4 hPa SW 7.7 km/h 20.8 km/h 40 % 0 mm
17:22 -3.8 °C -12.1 °C 34784.4 hPa WSW 2.6 km/h 18.2 km/h 39 % 0 mm
17:32 -3.9 °C -12 °C 34784.4 hPa SW 15.6 km/h 15.6 km/h 40 % 0 mm
17:42 -4 °C -11.8 °C 34784.4 hPa West 7.7 km/h 20.8 km/h 41 % 0 mm
17:47 -4 °C -11.7 °C 34797.9 hPa WSW 10.3 km/h 20.8 km/h 42 % 0 mm
17:57 -4.1 °C -11.7 °C 34784.4 hPa WNW 5.1 km/h 20.8 km/h 42 % 0 mm
18:02 -4 °C -11.7 °C 34784.4 hPa SW 2.6 km/h 20.8 km/h 42 % 0 mm
18:12 -3.9 °C -11.6 °C 34784.4 hPa SW 2.6 km/h 20.8 km/h 42 % 0 mm
18:17 -4.1 °C -11.7 °C 34784.4 hPa WSW 5.1 km/h 12.9 km/h 42 % 0 mm
18:22 -4.1 °C -11.5 °C 34784.4 hPa West 2.6 km/h 15.6 km/h 43 % 0 mm
18:27 -4 °C -11.7 °C 34784.4 hPa SW 5.1 km/h 15.6 km/h 42 % 0 mm
18:37 -4.1 °C -11.6 °C 34784.4 hPa WSW 5.1 km/h 15.6 km/h 43 % 0 mm
18:42 -4.1 °C -11.6 °C 34784.4 hPa SW 5.1 km/h 15.6 km/h 43 % 0 mm
18:47 -4.1 °C -11.6 °C 34784.4 hPa SW 2.6 km/h 15.6 km/h 43 % 0 mm
18:52 -4.2 °C -11.6 °C 34784.4 hPa SW 5.1 km/h 10.3 km/h 43 % 0 mm
19:02 -4.3 °C -11.6 °C 34784.4 hPa West 2.6 km/h 7.7 km/h 44 % 0 mm
19:12 -4.5 °C -11.6 °C 34784.4 hPa Calm   7.7 km/h 45 % 0 mm
19:22 -4.8 °C -11.4 °C 34784.4 hPa Calm   5.1 km/h 47 % 0 mm
19:32 -5.3 °C -11.3 °C 34784.4 hPa Calm     50 % 0 mm
19:37 -5.5 °C -11.4 °C 34784.4 hPa Calm     51 % 0 mm
19:42 -5.8 °C -11.2 °C 34784.4 hPa Calm     54 % 0 mm
19:47 -6 °C -11.2 °C 34784.4 hPa Calm     55 % 0 mm
19:52 -6.2 °C -11.2 °C 34784.4 hPa Calm     56 % 0 mm
19:57 -6.4 °C -11.4 °C 34784.4 hPa Calm     56 % 0 mm
20:02 -6.6 °C -11.3 °C 34784.4 hPa Calm     58 % 0 mm
20:12 -7 °C -11.3 °C 34784.4 hPa Calm     61 % 0 mm
20:17 -7.1 °C -11.3 °C 34784.4 hPa Calm     62 % 0 mm
20:22 -7.3 °C -11.3 °C 34784.4 hPa Calm     63 % 0 mm
20:27 -7.3 °C -11.2 °C 34784.4 hPa Calm     64 % 0 mm
20:37 -7.3 °C -10.9 °C 34784.4 hPa Calm     66 % 0 mm
20:47 -7.4 °C -11 °C 34784.4 hPa Calm     66 % 0 mm
20:52 -7.5 °C -10.9 °C 34784.4 hPa Calm     67 % 0 mm
20:57 -7.5 °C -10.8 °C 34784.4 hPa Calm     68 % 0 mm
21:02 -7.4 °C -10.8 °C 34784.4 hPa Calm     68 % 0 mm
21:12 -7.4 °C -10.9 °C 34784.4 hPa Calm     67 % 0 mm
21:17 -7.7 °C -11 °C 34784.4 hPa Calm     68 % 0 mm
21:22 -7.8 °C -11.1 °C 34784.4 hPa Calm     69 % 0 mm
21:27 -7.9 °C -11 °C 34784.4 hPa Calm     70 % 0 mm
21:32 -8.1 °C -11 °C 34784.4 hPa Calm     71 % 0 mm
21:47 -8.3 °C -11 °C 34784.4 hPa Calm     73 % 0 mm
21:57 -8.5 °C -11.2 °C 34784.4 hPa Calm     73 % 0 mm
22:02 -8.6 °C -11.1 °C 34784.4 hPa Calm     75 % 0 mm
22:12 -8.7 °C -11.4 °C 34784.4 hPa Calm     73 % 0 mm
22:17 -8.8 °C -11.3 °C 34784.4 hPa Calm     75 % 0 mm
22:22 -8.9 °C -11.6 °C 34784.4 hPa Calm     73 % 0 mm
22:32 -9.1 °C -11.6 °C 34784.4 hPa Calm     74 % 0 mm
22:42 -9.2 °C -11.6 °C 34784.4 hPa Calm     75 % 0 mm
22:52 -9.3 °C -11.5 °C 34784.4 hPa Calm     77 % 0 mm
22:57 -9.3 °C -11.6 °C 34774.2 hPa Calm     77 % 0 mm
23:02 -9.3 °C -11.4 °C 34774.2 hPa Calm     78 % 0 mm
23:12 -9.3 °C -11.3 °C 34774.2 hPa Calm     79 % 0 mm
23:17 -9.4 °C -11.2 °C 34774.2 hPa Calm     81 % 0 mm
23:22 -9.4 °C -11.2 °C 34774.2 hPa Calm     81 % 0 mm
23:27 -9.5 °C -11.3 °C 34774.2 hPa Calm     81 % 0 mm
23:32 -9.5 °C -11.3 °C 34774.2 hPa Calm     81 % 0 mm
23:37 -9.4 °C -11.3 °C 34774.2 hPa Calm     80 % 0 mm
23:42 -9.5 °C -11.2 °C 34760.7 hPa Calm     82 % 0 mm
23:47 -9.5 °C -11.2 °C 34760.7 hPa Calm     82 % 0 mm
23:52 -9.6 °C -11.3 °C 34760.7 hPa Calm     81 % 0 mm
23:57 -9.6 °C -11.3 °C 34760.7 hPa Calm     82 % 0 mm
Meteo18
Compliments of Weather Underground - 4 mb

Script developed by  Jim McMurry - jmcmurry@mwt.net Adapted for the template by  Wim van der Kuil - Leuven-Template.eu

You find our weather info also at:

European Weather Network

Weather Underground

Equipment we use:

Weather-station
Davis Vue

Weather-program
Meteobridge

Weather-server
Raspberry PI 2 B+

Provider
1 and 1

Davis Vue

Meteobridge

Raspberry PI 2 B+

1 and 1